createdAt,value
2023-02-27T00:02:31.461Z,9.22
2023-02-27T00:08:15.483Z,9.18
2023-02-27T00:13:59.258Z,9.14
2023-02-27T00:19:42.810Z,9.1
2023-02-27T00:25:27.449Z,9.05
2023-02-27T00:31:11.213Z,9
2023-02-27T00:36:55.483Z,8.96
2023-02-27T00:42:39.375Z,8.93
2023-02-27T00:48:23.322Z,8.91
2023-02-27T00:54:07.468Z,8.87
2023-02-27T00:59:51.043Z,8.84
2023-02-27T01:05:34.741Z,8.81
2023-02-27T01:11:18.686Z,8.79
2023-02-27T01:17:02.453Z,8.76
2023-02-27T01:22:47.436Z,8.73
2023-02-27T01:28:31.348Z,8.69
2023-02-27T01:34:15.017Z,8.67
2023-02-27T01:39:58.668Z,8.68
2023-02-27T01:45:43.531Z,8.66
2023-02-27T01:51:31.320Z,8.62
2023-02-27T01:57:15.166Z,8.63
2023-02-27T02:03:02.212Z,8.62
2023-02-27T02:08:47.401Z,8.66
2023-02-27T02:14:31.462Z,8.62
2023-02-27T02:20:24.331Z,8.57
2023-02-27T02:26:20.083Z,8.55
2023-02-27T02:32:17.951Z,8.56
2023-02-27T02:38:13.046Z,8.54
2023-02-27T02:44:02.992Z,8.55
2023-02-27T02:49:49.918Z,8.49
2023-02-27T02:55:35.408Z,8.43
2023-02-27T03:01:21.848Z,8.42
2023-02-27T03:07:09.336Z,8.41
2023-02-27T03:12:57.782Z,8.38
2023-02-27T03:18:46.373Z,8.34
2023-02-27T03:24:31.878Z,8.28
2023-02-27T03:30:19.312Z,8.25
2023-02-27T03:36:06.877Z,8.21
2023-02-27T03:41:52.724Z,8.2
2023-02-27T03:47:36.440Z,8.19
2023-02-27T03:53:25.002Z,8.15
2023-02-27T03:59:08.784Z,8.15
2023-02-27T04:04:53.527Z,8.12
2023-02-27T04:10:49.662Z,8.07
2023-02-27T04:16:41.394Z,8.07
2023-02-27T04:22:30.380Z,8.08
2023-02-27T04:28:17.136Z,8.07
2023-02-27T04:34:04.542Z,8.04
2023-02-27T04:39:51.445Z,8.04
2023-02-27T04:45:36.188Z,7.99
2023-02-27T04:51:22.706Z,7.95
2023-02-27T04:57:09.247Z,7.93
2023-02-27T05:02:56.332Z,7.88
2023-02-27T05:08:42.883Z,7.88
2023-02-27T05:14:30.183Z,7.9
2023-02-27T05:20:15.801Z,7.86
2023-02-27T05:26:02.017Z,7.84
2023-02-27T05:31:50.169Z,7.82
2023-02-27T05:37:38.294Z,7.84
2023-02-27T05:43:25.164Z,7.82
2023-02-27T05:49:11.400Z,7.8
2023-02-27T05:54:58.726Z,7.79
2023-02-27T06:00:44.108Z,7.75
2023-02-27T06:06:29.633Z,7.75
2023-02-27T06:12:14.411Z,7.76
2023-02-27T06:17:58.050Z,7.72
2023-02-27T06:23:42.012Z,7.7
2023-02-27T06:29:25.812Z,7.68
2023-02-27T06:35:10.007Z,7.67
2023-02-27T06:40:54.296Z,7.7
2023-02-27T06:46:38.193Z,7.67
2023-02-27T06:52:22.030Z,7.67
2023-02-27T06:58:05.823Z,7.7
2023-02-27T07:03:49.453Z,7.7
2023-02-27T07:09:33.691Z,7.8
2023-02-27T07:15:18.379Z,7.8
2023-02-27T07:21:02.126Z,7.83
2023-02-27T07:26:47.999Z,7.84
2023-02-27T07:32:31.786Z,7.91
2023-02-27T07:38:15.649Z,7.92
2023-02-27T07:43:59.562Z,7.96
2023-02-27T07:49:43.546Z,7.98
2023-02-27T07:55:27.214Z,7.99
2023-02-27T08:01:11.290Z,8.02
2023-02-27T08:06:55.018Z,8.07
2023-02-27T08:12:38.859Z,8.11
2023-02-27T08:18:22.965Z,8.12
2023-02-27T08:24:09.104Z,8.17
2023-02-27T08:29:52.947Z,8.22
2023-02-27T08:35:37.188Z,8.29
2023-02-27T08:41:21.881Z,8.38
2023-02-27T08:47:05.672Z,8.49
2023-02-27T08:52:49.443Z,8.58
2023-02-27T08:58:33.117Z,8.72
2023-02-27T09:04:17.120Z,8.86
2023-02-27T09:10:00.892Z,9.05
2023-02-27T09:15:46.841Z,9.18
2023-02-27T09:21:30.657Z,9.29
2023-02-27T09:27:14.461Z,9.38
2023-02-27T09:32:58.296Z,9.54
2023-02-27T09:38:42.132Z,9.69
2023-02-27T09:44:45.106Z,9.79
2023-02-27T09:50:33.960Z,9.99
2023-02-27T09:56:20.306Z,10.09
2023-02-27T10:02:09.305Z,10.18
2023-02-27T10:07:57.762Z,10.4
2023-02-27T10:13:50.608Z,10.58
2023-02-27T10:19:37.396Z,10.74
2023-02-27T10:25:31.100Z,10.82
2023-02-27T10:31:18.572Z,10.93
2023-02-27T10:37:06.035Z,11.06
2023-02-27T10:42:50.859Z,11.2
2023-02-27T10:48:36.208Z,11.35
2023-02-27T10:54:21.510Z,11.49
2023-02-27T11:00:07.598Z,11.64
2023-02-27T11:05:57.102Z,11.78
2023-02-27T11:11:41.063Z,11.92
2023-02-27T11:17:27.377Z,12.05
2023-02-27T11:23:14.483Z,12.23
2023-02-27T11:29:13.434Z,12.37
2023-02-27T11:34:58.199Z,12.53
2023-02-27T11:40:47.012Z,12.67
2023-02-27T11:46:39.929Z,12.83
2023-02-27T11:52:33.579Z,13.01
2023-02-27T11:58:19.078Z,13.17
2023-02-27T12:04:08.480Z,13.43
2023-02-27T12:09:58.113Z,13.76
2023-02-27T12:15:44.175Z,14.01
2023-02-27T12:21:30.572Z,14.24
2023-02-27T12:27:18.040Z,14.38
2023-02-27T12:33:03.409Z,14.5
2023-02-27T12:38:48.101Z,14.58
2023-02-27T12:44:37.226Z,14.68
2023-02-27T12:50:22.512Z,14.82
2023-02-27T12:56:11.685Z,14.94
2023-02-27T13:01:57.854Z,15.08
2023-02-27T13:07:46.707Z,15.17
2023-02-27T13:13:34.899Z,15.27
2023-02-27T13:19:23.674Z,15.43
2023-02-27T13:25:12.546Z,15.54
2023-02-27T13:31:00.802Z,15.65
2023-02-27T13:36:45.956Z,15.72
2023-02-27T13:42:40.663Z,15.74
2023-02-27T13:48:35.755Z,15.93
2023-02-27T13:54:23.835Z,15.97
2023-02-27T14:00:16.254Z,16.04
2023-02-27T14:06:02.004Z,16.25
2023-02-27T14:11:50.626Z,16.37
2023-02-27T14:17:43.807Z,16.51
2023-02-27T14:23:27.917Z,16.69
2023-02-27T14:29:13.940Z,16.64
2023-02-27T14:34:58.755Z,16.71
2023-02-27T14:40:49.053Z,16.85
2023-02-27T14:46:35.743Z,16.98
2023-02-27T14:52:23.355Z,16.88
2023-02-27T14:58:15.347Z,16.98
2023-02-27T15:04:00.298Z,17.12
2023-02-27T15:09:46.625Z,17.15
2023-02-27T15:15:30.299Z,17.09
2023-02-27T15:21:15.667Z,16.98
2023-02-27T15:27:01.802Z,16.9
2023-02-27T15:32:45.596Z,16.79
2023-02-27T15:38:30.510Z,16.53
2023-02-27T15:44:14.781Z,16.18
2023-02-27T15:49:59.498Z,16.13
2023-02-27T15:55:44.812Z,15.96
2023-02-27T16:01:30.691Z,15.74
2023-02-27T16:07:17.393Z,15.69
2023-02-27T16:13:07.743Z,15.58
2023-02-27T16:18:53.673Z,15.51
2023-02-27T16:24:37.679Z,15.41
2023-02-27T16:30:21.736Z,15.2
2023-02-27T16:36:13.402Z,15.05
2023-02-27T16:41:58.123Z,14.88
2023-02-27T16:47:42.076Z,14.77
2023-02-27T16:53:25.974Z,14.67
2023-02-27T16:59:14.680Z,14.54
2023-02-27T17:04:58.406Z,14.4
2023-02-27T17:10:42.491Z,14.31
2023-02-27T17:16:26.605Z,14.1
2023-02-27T17:22:12.036Z,13.92
2023-02-27T17:27:55.624Z,13.73
2023-02-27T17:33:40.678Z,13.6
2023-02-27T17:39:24.286Z,13.5
2023-02-27T17:45:08.907Z,13.41
2023-02-27T17:50:52.716Z,13.34
2023-02-27T17:56:37.455Z,13.17
2023-02-27T18:02:21.371Z,13.07
2023-02-27T18:08:05.368Z,12.99
2023-02-27T18:13:49.337Z,12.84
2023-02-27T18:19:33.163Z,12.68
2023-02-27T18:25:16.922Z,12.57
2023-02-27T18:31:01.481Z,12.49
2023-02-27T18:36:46.373Z,12.41
2023-02-27T18:42:30.182Z,12.31
2023-02-27T18:48:13.801Z,12.18
2023-02-27T18:53:57.382Z,12.09
2023-02-27T18:59:41.298Z,11.98
2023-02-27T19:05:24.939Z,11.88
2023-02-27T19:11:08.815Z,11.8
2023-02-27T19:16:52.706Z,11.71
2023-02-27T19:22:36.581Z,11.63
2023-02-27T19:28:21.111Z,11.53
2023-02-27T19:34:04.982Z,11.46
2023-02-27T19:39:48.976Z,11.36
2023-02-27T19:45:33.868Z,11.28
2023-02-27T19:51:18.158Z,11.21
2023-02-27T19:57:01.928Z,11.1
2023-02-27T20:02:45.827Z,11.03
2023-02-27T20:08:29.661Z,10.97
2023-02-27T20:14:15.091Z,10.87
2023-02-27T20:19:58.901Z,10.8
2023-02-27T20:25:42.556Z,10.73
2023-02-27T20:31:28.193Z,10.67
2023-02-27T20:37:14.464Z,10.62
2023-02-27T20:42:58.154Z,10.57
2023-02-27T20:48:42.502Z,10.52
2023-02-27T20:54:26.350Z,10.48
2023-02-27T21:00:15.326Z,10.41
2023-02-27T21:06:01.976Z,10.36
2023-02-27T21:11:45.760Z,10.31
2023-02-27T21:17:29.484Z,10.23
2023-02-27T21:23:13.128Z,10.14
2023-02-27T21:28:58.257Z,10.07
2023-02-27T21:34:42.095Z,10.03
2023-02-27T21:40:26.017Z,9.98
2023-02-27T21:46:11.508Z,9.93
2023-02-27T21:51:55.534Z,9.88
2023-02-27T21:57:39.698Z,9.83
2023-02-27T22:03:23.251Z,9.78
2023-02-27T22:09:07.072Z,9.75
2023-02-27T22:14:50.870Z,9.71
2023-02-27T22:20:35.375Z,9.65
2023-02-27T22:26:21.075Z,9.6
2023-02-27T22:32:05.518Z,9.57
2023-02-27T22:37:49.496Z,9.54
2023-02-27T22:43:33.614Z,9.49
2023-02-27T22:49:18.114Z,9.47
2023-02-27T22:55:01.869Z,9.43
2023-02-27T23:00:46.650Z,9.37
2023-02-27T23:06:31.114Z,9.39
2023-02-27T23:12:14.802Z,9.34
2023-02-27T23:17:58.841Z,9.27
2023-02-27T23:23:42.676Z,9.22
2023-02-27T23:29:26.369Z,9.19
2023-02-27T23:35:10.464Z,9.17
2023-02-27T23:40:54.142Z,9.16
2023-02-27T23:46:39.063Z,9.1
2023-02-27T23:52:22.747Z,9.06
2023-02-27T23:58:07.564Z,9.04
